createdAt,value
2023-03-12T00:03:12.462Z,10.65
2023-03-12T00:08:14.170Z,9.25
2023-03-12T00:13:15.773Z,8.18
2023-03-12T00:18:17.994Z,8.52
2023-03-12T00:23:19.601Z,4.80
2023-03-12T00:28:21.210Z,4.88
2023-03-12T00:33:22.834Z,3.63
2023-03-12T00:38:24.434Z,4.00
2023-03-12T00:43:26.077Z,5.95
2023-03-12T00:48:27.735Z,7.03
2023-03-12T00:53:29.356Z,3.10
2023-03-12T00:58:31.291Z,7.63
2023-03-12T01:03:33.317Z,8.73
2023-03-12T01:08:35.243Z,5.68
2023-03-12T01:13:36.857Z,3.92
2023-03-12T01:18:39.286Z,9.88
2023-03-12T01:23:40.901Z,6.20
2023-03-12T01:28:42.661Z,7.32
2023-03-12T01:33:45.634Z,4.95
2023-03-12T01:38:47.744Z,4.40
2023-03-12T01:43:49.712Z,8.70
2023-03-12T01:48:56.675Z,5.07
2023-03-12T01:54:02.710Z,4.10
2023-03-12T01:59:13.605Z,3.47
2023-03-12T02:04:18.208Z,5.17
2023-03-12T02:09:21.595Z,6.78
2023-03-12T02:14:23.981Z,3.78
2023-03-12T02:19:50.264Z,3.55
2023-03-12T02:25:24.928Z,4.97
2023-03-12T02:30:29.962Z,4.82
2023-03-12T02:35:32.248Z,4.78
2023-03-12T02:40:39.096Z,3.50
2023-03-12T02:45:40.825Z,9.15
2023-03-12T02:50:42.802Z,5.57
2023-03-12T02:55:44.498Z,7.22
2023-03-12T03:00:46.406Z,6.78
2023-03-12T03:05:48.150Z,3.97
2023-03-12T03:10:51.822Z,4.13
2023-03-12T03:15:54.204Z,8.05
2023-03-12T03:21:07.798Z,5.57
2023-03-12T03:26:10.118Z,6.20
2023-03-12T03:31:12.572Z,6.82
2023-03-12T03:36:16.001Z,7.47
2023-03-12T03:41:33.032Z,5.57
2023-03-12T03:46:38.130Z,4.03
2023-03-12T03:51:43.150Z,4.93
2023-03-12T03:56:48.180Z,3.17
2023-03-12T04:01:50.135Z,7.50
2023-03-12T04:06:51.862Z,6.57
2023-03-12T04:11:53.584Z,4.07
2023-03-12T04:16:55.317Z,3.83
2023-03-12T04:21:57.298Z,3.95
2023-03-12T04:26:59.368Z,7.15
2023-03-12T04:32:01.221Z,4.68
2023-03-12T04:37:03.654Z,8.48
2023-03-12T04:42:06.490Z,5.28
2023-03-12T04:47:08.564Z,5.55
2023-03-12T04:52:10.263Z,3.70
2023-03-12T04:57:12.147Z,2.20
2023-03-12T05:02:13.909Z,3.45
2023-03-12T05:07:16.585Z,5.18
2023-03-12T05:12:18.453Z,3.97
2023-03-12T05:17:20.305Z,3.25
2023-03-12T05:22:21.944Z,4.13
2023-03-12T05:27:26.140Z,7.55
2023-03-12T05:32:29.784Z,2.87
2023-03-12T05:37:31.519Z,3.65
2023-03-12T05:42:34.467Z,2.90
2023-03-12T05:47:36.607Z,6.00
2023-03-12T05:52:38.614Z,3.60
2023-03-12T05:57:40.506Z,2.28
2023-03-12T06:02:42.702Z,5.68
2023-03-12T06:07:45.084Z,4.00
2023-03-12T06:12:46.802Z,2.15
2023-03-12T06:17:48.708Z,4.22
2023-03-12T06:22:50.494Z,5.13
2023-03-12T06:27:52.204Z,3.37
2023-03-12T06:32:54.549Z,2.95
2023-03-12T06:37:56.195Z,1.98
2023-03-12T06:42:57.933Z,6.28
2023-03-12T06:47:59.525Z,3.05
2023-03-12T06:53:01.111Z,6.03
2023-03-12T06:58:04.071Z,7.40
2023-03-12T07:03:05.834Z,2.58
2023-03-12T07:08:07.439Z,4.18
2023-03-12T07:13:09.187Z,5.53
2023-03-12T07:18:12.287Z,2.13
2023-03-12T07:23:14.503Z,6.45
2023-03-12T07:28:16.692Z,5.63
2023-03-12T07:33:20.272Z,3.22
2023-03-12T07:38:21.992Z,3.13
2023-03-12T07:43:25.189Z,2.00
2023-03-12T07:48:29.030Z,6.85
2023-03-12T07:53:30.659Z,2.42
2023-03-12T07:58:32.822Z,4.07
2023-03-12T08:03:34.712Z,5.10
2023-03-12T08:08:38.353Z,6.10
2023-03-12T08:13:40.063Z,3.67
2023-03-12T08:18:43.193Z,4.00
2023-03-12T08:23:44.923Z,2.38
2023-03-12T08:28:46.596Z,4.03
2023-03-12T08:33:48.274Z,1.75
2023-03-12T08:38:49.883Z,4.25
2023-03-12T08:43:51.486Z,2.08
2023-03-12T08:48:53.130Z,6.57
2023-03-12T08:53:54.750Z,5.03
2023-03-12T08:58:57.743Z,5.65
2023-03-12T09:03:59.397Z,3.05
2023-03-12T09:09:05.123Z,4.53
2023-03-12T09:14:57.977Z,3.50
2023-03-12T09:19:29.526Z,5.30
2023-03-12T09:24:31.214Z,5.05
2023-03-12T09:29:34.062Z,4.13
2023-03-12T09:34:35.701Z,4.38
2023-03-12T09:39:37.382Z,1.98
2023-03-12T09:44:43.753Z,5.68
2023-03-12T09:49:54.252Z,3.50
2023-03-12T09:55:02.456Z,3.53
2023-03-12T10:00:07.328Z,3.45
2023-03-12T10:05:42.043Z,2.17
2023-03-12T10:11:15.799Z,5.03
2023-03-12T10:16:42.955Z,4.47
2023-03-12T10:22:14.703Z,3.90
2023-03-12T10:27:17.741Z,2.00
2023-03-12T10:32:37.715Z,1.85
2023-03-12T10:37:46.841Z,2.45
2023-03-12T10:42:48.952Z,2.40
2023-03-12T10:47:57.244Z,4.28
2023-03-12T10:53:44.683Z,3.40
2023-03-12T10:58:49.118Z,5.60
2023-03-12T11:03:52.454Z,2.65
2023-03-12T11:09:16.968Z,2.67
2023-03-12T11:14:22.428Z,2.08
2023-03-12T11:19:33.831Z,2.63
2023-03-12T11:24:36.052Z,2.95
2023-03-12T11:29:43.507Z,2.30
2023-03-12T11:34:49.744Z,0.98
2023-03-12T11:39:55.421Z,2.28
2023-03-12T11:45:20.835Z,3.25
2023-03-12T11:50:56.082Z,1.83
2023-03-12T11:56:10.050Z,2.38
2023-03-12T12:01:57.192Z,1.42
2023-03-12T12:07:29.856Z,2.03
2023-03-12T12:12:52.486Z,6.43
2023-03-12T12:18:05.791Z,3.78
2023-03-12T12:23:33.846Z,3.97
2023-03-12T12:28:53.972Z,10.32
2023-03-12T12:34:23.128Z,4.63
2023-03-12T12:39:39.131Z,7.63
2023-03-12T12:44:51.324Z,3.40
2023-03-12T12:49:58.332Z,3.50
2023-03-12T12:55:41.234Z,6.03
2023-03-12T13:00:51.358Z,7.85
2023-03-12T13:05:52.949Z,5.68
2023-03-12T13:11:02.178Z,4.32
2023-03-12T13:16:33.717Z,8.85
2023-03-12T13:21:51.370Z,6.88
2023-03-12T13:27:02.281Z,11.93
2023-03-12T13:32:06.022Z,6.38
2023-03-12T13:37:20.487Z,3.15
2023-03-12T13:42:24.957Z,4.82
2023-03-12T13:47:30.424Z,4.97
2023-03-12T13:52:47.080Z,3.63
2023-03-12T13:57:56.882Z,2.72
2023-03-12T14:03:03.358Z,7.72
2023-03-12T14:08:22.028Z,6.25
2023-03-12T14:13:48.424Z,5.70
2023-03-12T14:18:51.437Z,3.90
2023-03-12T14:23:57.843Z,5.78
2023-03-12T14:29:15.309Z,4.30
2023-03-12T14:34:26.257Z,4.88
2023-03-12T14:39:43.475Z,2.72
2023-03-12T14:44:54.837Z,4.53
2023-03-12T14:49:57.946Z,6.30
2023-03-12T14:55:08.307Z,10.48
2023-03-12T15:00:23.272Z,9.60
2023-03-12T15:05:26.686Z,5.40
2023-03-12T15:10:30.587Z,6.53
2023-03-12T15:15:32.240Z,13.35
2023-03-12T15:20:35.255Z,6.13
2023-03-12T15:25:37.030Z,5.47
2023-03-12T15:30:39.696Z,8.80
2023-03-12T15:35:44.059Z,6.07
2023-03-12T15:40:50.882Z,5.97
2023-03-12T15:46:04.073Z,9.07
2023-03-12T15:51:36.558Z,6.57
2023-03-12T15:56:38.384Z,5.20
2023-03-12T16:01:49.970Z,3.95
2023-03-12T16:06:53.474Z,5.65
2023-03-12T16:11:56.702Z,6.65
2023-03-12T16:16:59.010Z,5.32
2023-03-12T16:22:00.650Z,7.00
2023-03-12T16:27:05.294Z,4.97
2023-03-12T16:32:16.864Z,3.42
2023-03-12T16:37:18.522Z,4.47
2023-03-12T16:42:21.061Z,4.38
2023-03-12T16:47:22.728Z,6.32
2023-03-12T16:52:26.669Z,5.57
2023-03-12T16:57:35.287Z,6.43
2023-03-12T17:02:36.896Z,5.68
2023-03-12T17:07:38.474Z,5.35
2023-03-12T17:12:41.177Z,6.53
2023-03-12T17:17:43.123Z,5.70
2023-03-12T17:22:44.746Z,2.63
2023-03-12T17:27:46.346Z,5.53
2023-03-12T17:32:49.533Z,4.53
2023-03-12T17:37:51.237Z,4.35
2023-03-12T17:42:52.886Z,3.75
2023-03-12T17:47:54.593Z,2.33
2023-03-12T17:52:56.240Z,6.75
2023-03-12T17:57:58.390Z,2.47
2023-03-12T18:03:00.206Z,5.10
2023-03-12T18:08:01.891Z,2.38
2023-03-12T18:13:03.492Z,2.55
2023-03-12T18:18:05.211Z,2.00
2023-03-12T18:23:07.147Z,3.00
2023-03-12T18:28:08.893Z,3.45
2023-03-12T18:33:10.488Z,3.92
2023-03-12T18:38:12.583Z,3.08
2023-03-12T18:43:14.276Z,2.10
2023-03-12T18:48:15.891Z,2.03
2023-03-12T18:53:17.528Z,1.92
2023-03-12T18:58:19.391Z,2.10
2023-03-12T19:03:21.924Z,1.60
2023-03-12T19:08:23.699Z,2.72
2023-03-12T19:13:25.649Z,1.70
2023-03-12T19:18:28.200Z,3.20
2023-03-12T19:23:29.902Z,2.05
2023-03-12T19:28:32.104Z,1.63
2023-03-12T19:33:33.935Z,1.20
2023-03-12T19:38:35.700Z,1.60
2023-03-12T19:43:37.740Z,1.98
2023-03-12T19:48:39.375Z,1.75
2023-03-12T19:53:41.121Z,1.90
2023-03-12T19:58:42.711Z,1.92
2023-03-12T20:03:44.412Z,2.03
2023-03-12T20:08:49.045Z,1.90
2023-03-12T20:13:50.704Z,1.50
2023-03-12T20:18:52.297Z,5.32
2023-03-12T20:23:56.160Z,2.92
2023-03-12T20:29:02.096Z,3.00
2023-03-12T20:34:03.682Z,3.88
2023-03-12T20:39:05.373Z,5.60
2023-03-12T20:44:07.010Z,2.88
2023-03-12T20:49:08.576Z,3.00
2023-03-12T20:54:10.884Z,1.75
2023-03-12T20:59:12.825Z,4.93
2023-03-12T21:04:14.888Z,4.68
2023-03-12T21:09:16.516Z,4.65
2023-03-12T21:14:18.182Z,2.80
2023-03-12T21:19:19.803Z,1.98
2023-03-12T21:24:21.421Z,5.82
2023-03-12T21:29:23.049Z,3.67
2023-03-12T21:34:24.699Z,5.63
2023-03-12T21:39:27.301Z,3.75
2023-03-12T21:44:29.046Z,2.20
2023-03-12T21:49:32.366Z,7.43
2023-03-12T21:54:35.113Z,9.93
2023-03-12T21:59:36.761Z,7.68
2023-03-12T22:04:38.574Z,6.55
2023-03-12T22:09:40.269Z,8.25
2023-03-12T22:14:41.868Z,12.65
2023-03-12T22:19:43.836Z,5.20
2023-03-12T22:24:45.461Z,6.90
2023-03-12T22:29:47.066Z,13.90
2023-03-12T22:34:49.738Z,6.40
2023-03-12T22:39:51.713Z,11.02
2023-03-12T22:44:53.298Z,9.02
2023-03-12T22:49:57.619Z,12.23
2023-03-12T22:54:59.219Z,9.68
2023-03-12T23:00:00.894Z,11.50
2023-03-12T23:05:04.127Z,15.07
2023-03-12T23:10:06.681Z,11.43
2023-03-12T23:15:08.872Z,12.80
2023-03-12T23:20:11.869Z,15.38
2023-03-12T23:25:13.480Z,8.40
2023-03-12T23:30:15.288Z,16.58
2023-03-12T23:35:17.166Z,15.18
2023-03-12T23:40:19.105Z,13.98
2023-03-12T23:45:20.735Z,25.23
2023-03-12T23:50:22.348Z,19.48
2023-03-12T23:55:23.973Z,17.02
